createdAt,value
2022-11-21T06:28:36.047Z,50.70
2022-11-21T06:31:07.803Z,52.80
2022-11-21T06:33:35.457Z,50.00
2022-11-21T06:36:05.484Z,51.60
2022-11-21T06:38:33.247Z,52.60
2022-11-21T06:41:00.500Z,49.00
2022-11-21T06:43:28.676Z,47.00
2022-11-21T06:45:58.913Z,51.40
2022-11-21T06:48:26.270Z,51.20
2022-11-21T06:50:53.502Z,52.50
2022-11-21T06:53:20.857Z,54.20
2022-11-21T06:55:47.963Z,54.00
2022-11-21T06:58:15.260Z,51.90
2022-11-21T07:00:42.411Z,51.30
2022-11-21T07:03:10.986Z,54.00
2022-11-21T07:05:38.371Z,51.00
2022-11-21T07:08:11.929Z,49.50
2022-11-21T07:10:57.292Z,49.00
2022-11-21T07:13:28.687Z,49.00
2022-11-21T07:16:02.381Z,50.10
2022-11-21T07:18:30.379Z,49.90
2022-11-21T07:21:00.983Z,48.10
2022-11-21T07:23:28.646Z,50.40
2022-11-21T07:25:56.101Z,48.10
2022-11-21T07:28:24.065Z,45.30
2022-11-21T07:30:51.275Z,46.00
2022-11-21T07:33:18.361Z,48.80
2022-11-21T07:35:45.811Z,47.40
2022-11-21T07:38:13.463Z,46.30
2022-11-21T07:40:40.686Z,46.40
2022-11-21T07:43:10.969Z,43.10
2022-11-21T07:45:38.707Z,44.80
2022-11-21T07:48:08.938Z,44.20
2022-11-21T07:50:36.931Z,45.90
2022-11-21T07:53:06.335Z,45.90
2022-11-21T07:55:39.061Z,44.70
2022-11-21T07:58:10.262Z,44.20
2022-11-21T08:00:39.825Z,43.20
2022-11-21T08:03:08.417Z,44.20
2022-11-21T08:05:40.696Z,43.10
2022-11-21T08:08:10.117Z,42.10
2022-11-21T08:10:40.823Z,41.80
2022-11-21T08:13:08.102Z,42.30
2022-11-21T08:15:35.395Z,42.30
2022-11-21T08:18:10.531Z,41.00
2022-11-21T08:20:37.716Z,39.30
2022-11-21T08:23:06.163Z,41.00
2022-11-21T08:25:33.707Z,41.50
2022-11-21T08:28:02.863Z,41.10
2022-11-21T08:30:30.708Z,40.40
2022-11-21T08:32:58.649Z,37.60
2022-11-21T08:35:26.084Z,39.60
2022-11-21T08:37:58.446Z,37.70
2022-11-21T08:40:26.397Z,39.20
2022-11-21T08:42:59.413Z,39.10
2022-11-21T08:45:26.679Z,37.60
2022-11-21T08:47:54.128Z,39.50
2022-11-21T08:50:23.351Z,36.00
2022-11-21T08:52:50.907Z,36.40
2022-11-21T08:55:18.561Z,35.10
2022-11-21T08:57:46.406Z,35.30
2022-11-21T09:00:16.779Z,34.80
2022-11-21T09:02:44.078Z,34.00
2022-11-21T09:05:12.626Z,32.90
2022-11-21T09:07:41.345Z,31.40
2022-11-21T09:10:10.995Z,32.60
2022-11-21T09:12:38.433Z,31.50
2022-11-21T09:15:23.826Z,32.80
2022-11-21T09:18:08.250Z,32.00
2022-11-21T09:20:40.164Z,31.50
2022-11-21T09:23:09.506Z,29.80
2022-11-21T09:25:36.982Z,30.00
2022-11-21T09:28:06.427Z,28.90
2022-11-21T09:30:34.119Z,29.90
2022-11-21T09:33:04.765Z,28.60
2022-11-21T09:35:32.372Z,30.20
2022-11-21T09:38:01.425Z,27.60
2022-11-21T09:40:30.379Z,25.90
2022-11-21T09:43:11.914Z,26.90
2022-11-21T09:45:47.235Z,26.70
2022-11-21T09:48:18.223Z,28.20
2022-11-21T09:50:53.820Z,27.80
2022-11-21T09:53:25.592Z,29.70
2022-11-21T09:55:58.167Z,29.80
2022-11-21T09:58:31.151Z,30.70
2022-11-21T10:00:58.707Z,31.90
2022-11-21T10:06:30.606Z,29.30
2022-11-21T10:09:08.497Z,30.40
2022-11-21T10:12:07.089Z,29.80
2022-11-21T10:14:48.232Z,30.30
2022-11-21T10:17:24.055Z,32.20
2022-11-21T10:20:15.947Z,34.60
2022-11-21T10:23:06.342Z,34.60
2022-11-21T10:25:38.637Z,37.20
2022-11-21T10:28:09.189Z,33.70
2022-11-21T10:30:37.008Z,37.40
2022-11-21T10:33:13.275Z,36.00
2022-11-21T10:35:45.122Z,38.30
2022-11-21T10:38:23.452Z,36.30
2022-11-21T10:40:55.926Z,33.90
2022-11-21T10:43:52.238Z,37.70
2022-11-21T10:46:19.407Z,35.30
2022-11-21T10:48:55.702Z,36.80
2022-11-21T10:51:37.768Z,36.90
2022-11-21T10:54:30.883Z,35.40
2022-11-21T10:57:07.038Z,36.20
2022-11-21T10:59:34.809Z,36.70
2022-11-21T11:02:03.757Z,36.50
2022-11-21T11:04:41.493Z,35.90
2022-11-21T11:07:24.444Z,35.80
2022-11-21T11:09:52.597Z,36.60
2022-11-21T11:13:01.602Z,35.40
2022-11-21T11:15:29.888Z,35.40
2022-11-21T11:18:05.809Z,36.10
2022-11-21T11:20:40.168Z,37.10
2022-11-21T11:23:27.978Z,35.80
2022-11-21T11:25:56.849Z,37.20
2022-11-21T11:28:25.541Z,36.60
2022-11-21T11:30:55.038Z,33.50
2022-11-21T11:33:34.016Z,36.90
2022-11-21T11:36:14.574Z,34.60
2022-11-21T11:38:44.236Z,35.40
2022-11-21T11:41:21.580Z,34.80
2022-11-21T11:44:18.376Z,35.90
2022-11-21T11:47:12.334Z,34.30
2022-11-21T11:49:56.882Z,37.30
2022-11-21T11:52:27.001Z,36.20
2022-11-21T11:54:59.953Z,34.40
2022-11-21T11:57:31.436Z,34.50
2022-11-21T12:00:08.435Z,32.60
2022-11-21T12:02:50.756Z,33.10
2022-11-21T12:05:25.175Z,31.90
2022-11-21T12:11:13.446Z,32.80
2022-11-21T12:13:43.394Z,31.80
2022-11-21T12:16:14.846Z,34.00
2022-11-21T12:18:52.360Z,34.40
2022-11-21T12:21:21.089Z,33.70
2022-11-21T12:23:50.512Z,34.40
2022-11-21T12:26:32.753Z,34.10
2022-11-21T12:29:15.335Z,31.90
2022-11-21T12:31:59.253Z,33.60
2022-11-21T12:34:40.942Z,31.80
2022-11-21T12:37:20.146Z,31.80
2022-11-21T12:40:11.603Z,31.90
2022-11-21T12:42:51.798Z,32.70
2022-11-21T12:45:33.549Z,31.90
2022-11-21T12:48:33.415Z,30.40
2022-11-21T12:51:34.817Z,32.30
2022-11-21T12:54:34.158Z,34.70
2022-11-21T12:57:10.486Z,31.60
2022-11-21T12:59:47.044Z,33.40
2022-11-21T13:04:51.515Z,29.10
2022-11-21T13:07:20.173Z,30.10
2022-11-21T13:09:52.992Z,30.90
2022-11-21T13:12:28.819Z,33.00
2022-11-21T13:15:06.007Z,31.40
2022-11-21T13:17:51.730Z,32.30
2022-11-21T13:20:26.501Z,32.10
2022-11-21T13:22:59.316Z,34.40
2022-11-21T13:25:50.822Z,32.50
2022-11-21T13:28:33.566Z,31.80
2022-11-21T13:31:01.856Z,30.90
2022-11-21T13:33:54.053Z,30.40
2022-11-21T13:36:53.768Z,33.50
2022-11-21T13:39:32.553Z,32.70
2022-11-21T13:42:22.799Z,33.20
2022-11-21T13:44:50.960Z,34.70
2022-11-21T13:47:47.766Z,33.40
2022-11-21T13:50:29.690Z,34.50
2022-11-21T13:53:11.824Z,36.10
2022-11-21T13:55:49.701Z,35.20
2022-11-21T13:58:32.879Z,33.60
2022-11-21T14:01:24.206Z,33.50
2022-11-21T14:04:23.713Z,34.80
2022-11-21T14:06:50.933Z,33.70
2022-11-21T14:09:26.150Z,35.40
2022-11-21T14:11:56.047Z,32.70
2022-11-21T14:14:33.267Z,33.80
2022-11-21T14:17:20.649Z,34.30
2022-11-21T14:19:49.671Z,33.70
2022-11-21T14:22:34.622Z,35.80
2022-11-21T14:25:07.961Z,35.50
2022-11-21T14:27:44.960Z,34.40
2022-11-21T14:30:33.572Z,34.40
2022-11-21T14:33:23.398Z,35.10
2022-11-21T14:35:52.905Z,33.70
2022-11-21T14:38:20.886Z,35.70
2022-11-21T14:40:48.106Z,35.30
2022-11-21T14:43:32.529Z,34.60
2022-11-21T14:45:59.885Z,36.20
2022-11-21T14:48:31.640Z,36.20
2022-11-21T14:51:02.181Z,36.50
2022-11-21T14:53:30.777Z,38.90
2022-11-21T14:56:01.515Z,38.10
2022-11-21T14:58:30.177Z,39.60
2022-11-21T15:01:07.773Z,40.90
2022-11-21T15:03:37.291Z,39.40
2022-11-21T15:06:12.004Z,40.70
2022-11-21T15:11:36.143Z,39.20
2022-11-21T15:14:15.903Z,39.50
2022-11-21T15:16:44.020Z,42.30
2022-11-21T15:19:13.966Z,43.40
2022-11-21T15:21:47.331Z,47.30
2022-11-21T15:24:31.537Z,45.40
2022-11-21T15:26:58.872Z,44.50
2022-11-21T15:29:26.647Z,45.40
2022-11-21T15:35:01.939Z,49.20
2022-11-21T15:37:30.983Z,49.70
2022-11-21T15:39:59.335Z,50.10
2022-11-21T15:42:39.284Z,51.40
2022-11-21T15:45:25.471Z,50.70
2022-11-21T15:47:53.491Z,49.00
2022-11-21T15:50:23.962Z,48.50
2022-11-21T15:52:53.775Z,46.90
2022-11-21T15:55:23.751Z,46.90
2022-11-21T15:57:14.065Z,47.70
2022-11-21T15:57:51.105Z,46.00
2022-11-21T16:00:20.471Z,46.30
2022-11-21T16:02:47.791Z,45.80
2022-11-21T16:05:18.713Z,44.70
2022-11-21T16:07:46.131Z,45.50
2022-11-21T16:10:22.662Z,47.30
2022-11-21T16:12:54.461Z,46.90
2022-11-21T16:15:21.919Z,45.60
2022-11-21T16:17:49.076Z,46.20
2022-11-21T16:20:17.164Z,45.60
2022-11-21T16:22:47.799Z,45.30
2022-11-21T16:25:15.652Z,43.50
2022-11-21T16:27:43.594Z,44.50
2022-11-21T16:30:12.626Z,43.10
2022-11-21T16:32:40.306Z,45.80
2022-11-21T16:35:08.816Z,45.80
2022-11-21T16:37:37.007Z,47.10
2022-11-21T16:40:04.700Z,45.30
2022-11-21T16:42:32.143Z,46.10
2022-11-21T16:45:00.048Z,44.50
2022-11-21T16:47:27.552Z,44.20
2022-11-21T16:49:55.083Z,45.20
2022-11-21T16:52:22.781Z,46.70
2022-11-21T16:54:50.760Z,47.70
2022-11-21T16:57:18.300Z,46.20
2022-11-21T16:59:47.176Z,45.00
2022-11-21T17:02:14.553Z,41.90
2022-11-21T17:04:42.655Z,43.20
2022-11-21T17:07:10.422Z,43.20
2022-11-21T17:09:37.735Z,44.70
2022-11-21T17:12:06.635Z,43.50
2022-11-21T17:14:34.218Z,43.70
2022-11-21T17:17:01.812Z,45.90
2022-11-21T17:19:29.882Z,43.60
2022-11-21T17:21:56.973Z,42.40
2022-11-21T17:24:24.143Z,43.40
2022-11-21T17:26:51.957Z,41.40
2022-11-21T17:29:19.549Z,44.70
2022-11-21T17:31:47.159Z,44.30
2022-11-21T17:34:15.566Z,45.80
2022-11-21T17:36:42.643Z,44.50
2022-11-21T17:39:09.999Z,45.10
2022-11-21T17:41:38.188Z,43.10
2022-11-21T17:44:05.576Z,43.70
2022-11-21T17:46:33.026Z,43.00
2022-11-21T17:49:00.865Z,44.70
2022-11-21T17:51:30.320Z,43.70
2022-11-21T17:53:57.505Z,46.10
2022-11-21T17:56:26.904Z,43.30
2022-11-21T17:58:55.042Z,43.00
2022-11-21T18:01:22.707Z,42.20
2022-11-21T18:03:56.060Z,42.60
2022-11-21T18:06:23.642Z,43.10
2022-11-21T18:08:52.996Z,43.80
2022-11-21T18:11:22.445Z,39.70
2022-11-21T18:13:50.149Z,40.20
2022-11-21T18:16:19.257Z,42.00
2022-11-21T18:18:46.910Z,41.40
2022-11-21T18:21:16.164Z,42.00
2022-11-21T18:23:44.763Z,43.30
2022-11-21T18:26:16.035Z,43.30
2022-11-21T18:28:43.668Z,44.40
2022-11-21T18:31:13.357Z,42.20
2022-11-21T18:33:41.818Z,41.10
2022-11-21T18:36:10.781Z,39.40
2022-11-21T18:38:48.721Z,40.60
2022-11-21T18:41:21.688Z,43.40
2022-11-21T18:43:53.467Z,43.80
2022-11-21T18:46:22.786Z,42.90
2022-11-21T18:49:08.267Z,43.50
2022-11-21T18:51:36.366Z,42.60
2022-11-21T18:54:07.349Z,41.60
2022-11-21T18:56:36.440Z,41.70
2022-11-21T18:59:06.016Z,41.70
2022-11-21T19:01:34.266Z,42.20
2022-11-21T19:04:02.086Z,40.30
2022-11-21T19:06:30.261Z,40.90
2022-11-21T19:08:59.209Z,40.70
2022-11-21T19:11:28.251Z,42.90
2022-11-21T19:13:56.146Z,42.80
2022-11-21T19:16:25.547Z,42.30
2022-11-21T19:21:42.961Z,42.70
2022-11-21T19:24:14.391Z,41.90
2022-11-21T19:26:42.177Z,40.90
2022-11-21T19:29:10.007Z,39.00
2022-11-21T19:31:44.261Z,41.60
2022-11-21T19:34:14.246Z,40.90
2022-11-21T19:36:41.965Z,40.80
2022-11-21T19:39:09.957Z,41.80
2022-11-21T19:41:38.682Z,40.80
2022-11-21T19:44:06.049Z,39.20
2022-11-21T19:46:36.068Z,37.30
2022-11-21T19:49:04.549Z,38.80
2022-11-21T19:51:34.256Z,39.80
2022-11-21T19:54:02.638Z,39.20
2022-11-21T19:56:30.809Z,40.10
2022-11-21T19:58:58.864Z,40.80
2022-11-21T20:01:28.304Z,39.30
2022-11-21T20:03:58.102Z,40.30
2022-11-21T20:06:27.916Z,39.70
2022-11-21T20:08:57.168Z,39.50
2022-11-21T20:11:25.104Z,37.60
2022-11-21T20:13:53.356Z,37.70
2022-11-21T20:16:23.245Z,39.50
2022-11-21T20:18:51.768Z,39.80
2022-11-21T20:21:20.246Z,40.20
2022-11-21T20:23:47.487Z,41.40
2022-11-21T20:26:15.867Z,40.30
2022-11-21T20:28:43.429Z,39.70
2022-11-21T20:31:13.073Z,37.30
2022-11-21T20:33:42.167Z,38.00
2022-11-21T20:36:14.343Z,37.90
2022-11-21T20:38:43.233Z,38.60
2022-11-21T20:41:10.952Z,40.40
2022-11-21T20:44:24.594Z,41.70
2022-11-21T20:48:52.270Z,39.10
2022-11-21T20:53:06.345Z,39.60
2022-11-21T20:54:08.596Z,39.60
2022-11-21T20:56:38.109Z,39.40
2022-11-21T20:59:07.290Z,38.10
2022-11-21T21:01:35.230Z,36.80
2022-11-21T21:04:02.845Z,39.00
2022-11-21T21:06:30.316Z,38.80
2022-11-21T21:08:57.566Z,40.60
2022-11-21T21:11:50.339Z,41.60
2022-11-21T21:14:14.452Z,42.30
2022-11-21T21:16:41.975Z,42.60
2022-11-21T21:19:09.223Z,40.80
2022-11-21T21:21:37.063Z,40.60
2022-11-21T21:24:07.510Z,39.90
2022-11-21T21:26:41.767Z,41.70
2022-11-21T21:29:10.978Z,41.90
2022-11-21T21:31:38.229Z,41.70
2022-11-21T21:34:05.723Z,41.90
2022-11-21T21:36:33.772Z,39.70
2022-11-21T21:39:02.482Z,40.90
2022-11-21T21:41:32.360Z,39.20
2022-11-21T21:44:00.467Z,38.40
2022-11-21T21:46:29.224Z,37.20
2022-11-21T21:48:57.681Z,41.40
2022-11-21T21:51:26.939Z,37.40
2022-11-21T21:53:55.176Z,40.60
2022-11-21T21:56:23.558Z,41.70
2022-11-21T21:58:52.653Z,40.40
2022-11-21T22:01:22.035Z,40.20
2022-11-21T22:03:54.069Z,38.60
2022-11-21T22:06:22.295Z,36.90
2022-11-21T22:08:50.571Z,37.20
2022-11-21T22:11:20.111Z,37.60
2022-11-21T22:13:49.071Z,39.00
2022-11-21T22:16:16.847Z,40.70
2022-11-21T22:18:44.319Z,39.50
2022-11-21T22:21:19.431Z,38.30
2022-11-21T22:24:17.338Z,38.00
2022-11-21T22:26:35.242Z,37.70
2022-11-21T22:29:02.589Z,38.00
2022-11-21T22:31:32.821Z,37.10
2022-11-21T22:34:00.427Z,38.90
2022-11-21T22:36:28.651Z,39.10
2022-11-21T22:38:57.585Z,38.80
2022-11-21T22:41:26.489Z,39.60
2022-11-21T22:43:55.433Z,38.40
2022-11-21T22:46:23.293Z,40.00
2022-11-21T22:48:50.960Z,38.00
2022-11-21T22:51:20.200Z,36.90
2022-11-21T22:53:48.337Z,37.00
2022-11-21T22:56:16.610Z,36.70
2022-11-21T22:58:44.058Z,36.20
2022-11-21T23:01:13.060Z,34.90
2022-11-21T23:03:41.432Z,37.20
2022-11-21T23:06:11.240Z,36.90
2022-11-21T23:08:39.016Z,37.20
2022-11-21T23:11:08.266Z,37.30
2022-11-21T23:13:36.509Z,37.50
2022-11-21T23:16:04.352Z,35.80
2022-11-21T23:18:32.017Z,34.20
2022-11-21T23:20:59.480Z,35.20
2022-11-21T23:23:27.239Z,34.10
2022-11-21T23:25:55.030Z,38.10
2022-11-21T23:28:22.486Z,36.80
2022-11-21T23:30:50.675Z,34.00
2022-11-21T23:33:18.444Z,34.80
2022-11-21T23:35:47.390Z,35.60
2022-11-21T23:38:15.974Z,33.80
2022-11-21T23:40:45.386Z,32.90
2022-11-21T23:43:13.146Z,35.00
2022-11-21T23:45:40.604Z,35.30
2022-11-21T23:48:08.932Z,36.00
2022-11-21T23:50:36.790Z,35.10
2022-11-21T23:53:04.205Z,38.50
2022-11-21T23:55:31.667Z,36.90
2022-11-21T23:57:59.149Z,35.10
